sensor_id;sensor_type;location;lat;lon;timestamp;P1;durP1;ratioP1;P2;durP2;ratioP2
6928;SDS011;3504;52.616;13.238;2023-03-01T00:04:42;26.90;;;17.87;;
6928;SDS011;3504;52.616;13.238;2023-03-01T00:09:43;25.30;;;17.93;;
6928;SDS011;3504;52.616;13.238;2023-03-01T00:14:45;27.50;;;17.70;;
6928;SDS011;3504;52.616;13.238;2023-03-01T00:19:46;24.23;;;16.47;;
6928;SDS011;3504;52.616;13.238;2023-03-01T00:24:46;26.23;;;15.93;;
6928;SDS011;3504;52.616;13.238;2023-03-01T00:29:47;22.53;;;15.30;;
6928;SDS011;3504;52.616;13.238;2023-03-01T00:34:47;22.23;;;15.47;;
6928;SDS011;3504;52.616;13.238;2023-03-01T00:39:54;26.87;;;17.30;;
6928;SDS011;3504;52.616;13.238;2023-03-01T00:44:55;30.93;;;19.60;;
6928;SDS011;3504;52.616;13.238;2023-03-01T00:49:55;29.57;;;18.57;;
6928;SDS011;3504;52.616;13.238;2023-03-01T00:54:56;23.67;;;15.33;;
6928;SDS011;3504;52.616;13.238;2023-03-01T00:59:57;21.30;;;15.40;;
6928;SDS011;3504;52.616;13.238;2023-03-01T01:04:59;20.60;;;13.77;;
6928;SDS011;3504;52.616;13.238;2023-03-01T01:10:00;19.97;;;14.40;;
6928;SDS011;3504;52.616;13.238;2023-03-01T01:15:01;19.53;;;13.07;;
6928;SDS011;3504;52.616;13.238;2023-03-01T01:20:01;21.60;;;14.40;;
6928;SDS011;3504;52.616;13.238;2023-03-01T01:25:03;20.27;;;14.23;;
6928;SDS011;3504;52.616;13.238;2023-03-01T01:30:04;23.23;;;14.40;;
6928;SDS011;3504;52.616;13.238;2023-03-01T01:35:05;22.13;;;14.63;;
6928;SDS011;3504;52.616;13.238;2023-03-01T01:40:06;22.63;;;14.80;;
6928;SDS011;3504;52.616;13.238;2023-03-01T01:45:24;23.17;;;13.90;;
6928;SDS011;3504;52.616;13.238;2023-03-01T01:50:33;20.97;;;14.33;;
6928;SDS011;3504;52.616;13.238;2023-03-01T01:55:42;22.20;;;15.47;;
6928;SDS011;3504;52.616;13.238;2023-03-01T02:00:47;21.43;;;15.53;;
6928;SDS011;3504;52.616;13.238;2023-03-01T02:06:04;25.10;;;16.10;;
6928;SDS011;3504;52.616;13.238;2023-03-01T02:11:11;22.13;;;14.87;;
6928;SDS011;3504;52.616;13.238;2023-03-01T02:16:14;24.93;;;15.77;;
6928;SDS011;3504;52.616;13.238;2023-03-01T02:21:19;22.30;;;14.27;;
6928;SDS011;3504;52.616;13.238;2023-03-01T02:26:42;24.50;;;15.23;;
6928;SDS011;3504;52.616;13.238;2023-03-01T02:31:48;24.73;;;15.20;;
6928;SDS011;3504;52.616;13.238;2023-03-01T02:36:55;24.83;;;16.00;;
6928;SDS011;3504;52.616;13.238;2023-03-01T02:42:01;26.13;;;15.87;;
6928;SDS011;3504;52.616;13.238;2023-03-01T02:47:04;24.80;;;16.07;;
6928;SDS011;3504;52.616;13.238;2023-03-01T02:57:28;23.27;;;14.90;;
6928;SDS011;3504;52.616;13.238;2023-03-01T03:02:31;24.00;;;15.00;;
6928;SDS011;3504;52.616;13.238;2023-03-01T03:07:38;22.40;;;13.83;;
6928;SDS011;3504;52.616;13.238;2023-03-01T03:12:41;23.97;;;15.40;;
6928;SDS011;3504;52.616;13.238;2023-03-01T03:17:42;21.97;;;14.33;;
6928;SDS011;3504;52.616;13.238;2023-03-01T03:22:42;23.00;;;14.43;;
6928;SDS011;3504;52.616;13.238;2023-03-01T03:27:44;23.57;;;14.70;;
6928;SDS011;3504;52.616;13.238;2023-03-01T03:32:46;21.87;;;14.07;;
6928;SDS011;3504;52.616;13.238;2023-03-01T03:37:52;24.90;;;14.70;;
6928;SDS011;3504;52.616;13.238;2023-03-01T03:43:03;21.77;;;14.70;;
6928;SDS011;3504;52.616;13.238;2023-03-01T03:48:06;21.87;;;15.07;;
6928;SDS011;3504;52.616;13.238;2023-03-01T03:53:12;22.37;;;13.77;;
6928;SDS011;3504;52.616;13.238;2023-03-01T03:58:13;21.00;;;12.93;;
6928;SDS011;3504;52.616;13.238;2023-03-01T04:03:14;22.57;;;14.03;;
6928;SDS011;3504;52.616;13.238;2023-03-01T04:08:17;20.40;;;13.37;;
6928;SDS011;3504;52.616;13.238;2023-03-01T04:13:22;29.27;;;14.17;;
6928;SDS011;3504;52.616;13.238;2023-03-01T04:18:25;20.20;;;13.37;;
6928;SDS011;3504;52.616;13.238;2023-03-01T04:23:25;19.00;;;13.97;;
6928;SDS011;3504;52.616;13.238;2023-03-01T04:28:30;20.10;;;13.87;;
6928;SDS011;3504;52.616;13.238;2023-03-01T04:33:40;19.10;;;13.17;;
6928;SDS011;3504;52.616;13.238;2023-03-01T04:38:46;21.10;;;13.27;;
6928;SDS011;3504;52.616;13.238;2023-03-01T04:43:47;20.50;;;12.87;;
6928;SDS011;3504;52.616;13.238;2023-03-01T04:48:48;19.90;;;12.37;;
6928;SDS011;3504;52.616;13.238;2023-03-01T04:53:49;17.57;;;12.67;;
6928;SDS011;3504;52.616;13.238;2023-03-01T04:58:49;19.80;;;12.30;;
6928;SDS011;3504;52.616;13.238;2023-03-01T05:03:53;17.47;;;11.93;;
6928;SDS011;3504;52.616;13.238;2023-03-01T05:08:54;18.70;;;12.60;;
6928;SDS011;3504;52.616;13.238;2023-03-01T05:13:55;19.23;;;12.87;;
6928;SDS011;3504;52.616;13.238;2023-03-01T05:18:55;20.13;;;12.60;;
6928;SDS011;3504;52.616;13.238;2023-03-01T05:23:56;19.13;;;12.03;;
6928;SDS011;3504;52.616;13.238;2023-03-01T05:28:57;17.20;;;11.97;;
6928;SDS011;3504;52.616;13.238;2023-03-01T05:33:58;19.57;;;12.70;;
6928;SDS011;3504;52.616;13.238;2023-03-01T05:38:59;21.20;;;13.57;;
6928;SDS011;3504;52.616;13.238;2023-03-01T05:43:59;18.77;;;11.90;;
6928;SDS011;3504;52.616;13.238;2023-03-01T05:49:00;19.40;;;13.10;;
6928;SDS011;3504;52.616;13.238;2023-03-01T05:54:00;25.27;;;14.13;;
6928;SDS011;3504;52.616;13.238;2023-03-01T05:59:01;21.70;;;13.77;;
6928;SDS011;3504;52.616;13.238;2023-03-01T06:04:03;24.63;;;15.07;;
6928;SDS011;3504;52.616;13.238;2023-03-01T06:09:05;18.33;;;13.20;;
6928;SDS011;3504;52.616;13.238;2023-03-01T06:14:07;18.53;;;12.73;;
6928;SDS011;3504;52.616;13.238;2023-03-01T06:19:07;23.37;;;14.40;;
6928;SDS011;3504;52.616;13.238;2023-03-01T06:24:08;21.87;;;12.37;;
6928;SDS011;3504;52.616;13.238;2023-03-01T06:29:09;21.23;;;12.80;;
6928;SDS011;3504;52.616;13.238;2023-03-01T06:34:09;22.27;;;14.33;;
6928;SDS011;3504;52.616;13.238;2023-03-01T06:39:13;21.77;;;14.77;;
6928;SDS011;3504;52.616;13.238;2023-03-01T06:44:13;23.13;;;14.80;;
6928;SDS011;3504;52.616;13.238;2023-03-01T06:49:14;23.43;;;14.60;;
6928;SDS011;3504;52.616;13.238;2023-03-01T06:54:16;23.73;;;14.37;;
6928;SDS011;3504;52.616;13.238;2023-03-01T06:59:17;23.23;;;15.30;;
6928;SDS011;3504;52.616;13.238;2023-03-01T07:04:18;21.60;;;15.03;;
6928;SDS011;3504;52.616;13.238;2023-03-01T07:09:19;27.87;;;17.43;;
6928;SDS011;3504;52.616;13.238;2023-03-01T07:14:21;30.00;;;18.10;;
6928;SDS011;3504;52.616;13.238;2023-03-01T07:19:24;27.87;;;17.27;;
6928;SDS011;3504;52.616;13.238;2023-03-01T07:24:24;32.10;;;19.70;;
6928;SDS011;3504;52.616;13.238;2023-03-01T07:29:25;31.80;;;19.20;;
6928;SDS011;3504;52.616;13.238;2023-03-01T07:34:25;30.30;;;19.77;;
6928;SDS011;3504;52.616;13.238;2023-03-01T07:39:26;31.23;;;19.33;;
6928;SDS011;3504;52.616;13.238;2023-03-01T07:44:26;32.07;;;20.03;;
6928;SDS011;3504;52.616;13.238;2023-03-01T07:49:28;26.73;;;18.33;;
6928;SDS011;3504;52.616;13.238;2023-03-01T07:54:28;29.07;;;18.40;;
6928;SDS011;3504;52.616;13.238;2023-03-01T07:59:29;31.07;;;19.33;;
6928;SDS011;3504;52.616;13.238;2023-03-01T08:04:29;27.53;;;17.87;;
6928;SDS011;3504;52.616;13.238;2023-03-01T08:09:30;24.53;;;15.97;;
6928;SDS011;3504;52.616;13.238;2023-03-01T08:14:31;20.07;;;14.63;;
6928;SDS011;3504;52.616;13.238;2023-03-01T08:19:32;23.23;;;15.37;;
6928;SDS011;3504;52.616;13.238;2023-03-01T08:24:34;21.27;;;13.27;;
6928;SDS011;3504;52.616;13.238;2023-03-01T08:29:35;14.57;;;10.37;;
6928;SDS011;3504;52.616;13.238;2023-03-01T08:34:35;18.83;;;12.77;;
6928;SDS011;3504;52.616;13.238;2023-03-01T08:39:36;22.10;;;14.60;;
6928;SDS011;3504;52.616;13.238;2023-03-01T08:44:36;16.57;;;11.37;;
6928;SDS011;3504;52.616;13.238;2023-03-01T08:49:37;17.77;;;11.33;;
6928;SDS011;3504;52.616;13.238;2023-03-01T08:54:37;13.63;;;9.60;;
6928;SDS011;3504;52.616;13.238;2023-03-01T08:59:38;11.60;;;8.80;;
6928;SDS011;3504;52.616;13.238;2023-03-01T09:04:38;14.80;;;8.60;;
6928;SDS011;3504;52.616;13.238;2023-03-01T09:09:40;14.07;;;8.73;;
6928;SDS011;3504;52.616;13.238;2023-03-01T09:14:40;11.00;;;8.10;;
6928;SDS011;3504;52.616;13.238;2023-03-01T09:19:42;11.53;;;7.93;;
6928;SDS011;3504;52.616;13.238;2023-03-01T09:24:42;15.80;;;8.77;;
6928;SDS011;3504;52.616;13.238;2023-03-01T09:29:43;13.23;;;8.17;;
6928;SDS011;3504;52.616;13.238;2023-03-01T09:34:43;13.73;;;8.53;;
6928;SDS011;3504;52.616;13.238;2023-03-01T09:40:05;11.27;;;7.53;;
6928;SDS011;3504;52.616;13.238;2023-03-01T09:45:11;11.17;;;7.10;;
6928;SDS011;3504;52.616;13.238;2023-03-01T09:50:26;11.27;;;6.80;;
6928;SDS011;3504;52.616;13.238;2023-03-01T09:55:35;7.60;;;5.20;;
6928;SDS011;3504;52.616;13.238;2023-03-01T10:00:39;7.80;;;5.10;;
6928;SDS011;3504;52.616;13.238;2023-03-01T10:11:02;6.37;;;3.30;;
6928;SDS011;3504;52.616;13.238;2023-03-01T10:16:09;8.10;;;4.93;;
6928;SDS011;3504;52.616;13.238;2023-03-01T10:21:15;6.40;;;4.90;;
6928;SDS011;3504;52.616;13.238;2023-03-01T10:36:51;7.40;;;4.97;;
6928;SDS011;3504;52.616;13.238;2023-03-01T10:47:00;7.37;;;4.70;;
6928;SDS011;3504;52.616;13.238;2023-03-01T10:52:11;7.47;;;4.87;;
6928;SDS011;3504;52.616;13.238;2023-03-01T10:57:30;7.80;;;4.70;;
6928;SDS011;3504;52.616;13.238;2023-03-01T11:02:37;8.30;;;4.17;;
6928;SDS011;3504;52.616;13.238;2023-03-01T11:07:48;8.87;;;4.80;;
6928;SDS011;3504;52.616;13.238;2023-03-01T11:12:50;7.53;;;4.53;;
6928;SDS011;3504;52.616;13.238;2023-03-01T11:17:53;9.87;;;5.47;;
6928;SDS011;3504;52.616;13.238;2023-03-01T11:28:14;11.37;;;4.43;;
6928;SDS011;3504;52.616;13.238;2023-03-01T11:33:19;8.90;;;4.77;;
6928;SDS011;3504;52.616;13.238;2023-03-01T11:38:36;7.50;;;4.30;;
6928;SDS011;3504;52.616;13.238;2023-03-01T11:54:58;4.73;;;3.43;;
6928;SDS011;3504;52.616;13.238;2023-03-01T12:11:47;3.87;;;2.80;;
6928;SDS011;3504;52.616;13.238;2023-03-01T12:22:23;3.70;;;2.60;;
6928;SDS011;3504;52.616;13.238;2023-03-01T12:27:40;3.17;;;2.70;;
6928;SDS011;3504;52.616;13.238;2023-03-01T12:38:42;3.47;;;2.60;;
6928;SDS011;3504;52.616;13.238;2023-03-01T12:43:54;3.93;;;2.97;;
6928;SDS011;3504;52.616;13.238;2023-03-01T12:50:01;4.47;;;3.30;;
6928;SDS011;3504;52.616;13.238;2023-03-01T12:55:33;5.00;;;2.90;;
6928;SDS011;3504;52.616;13.238;2023-03-01T13:00:40;4.43;;;3.13;;
6928;SDS011;3504;52.616;13.238;2023-03-01T13:06:03;6.03;;;2.90;;
6928;SDS011;3504;52.616;13.238;2023-03-01T13:11:17;3.77;;;2.40;;
6928;SDS011;3504;52.616;13.238;2023-03-01T13:21:30;4.47;;;3.33;;
6928;SDS011;3504;52.616;13.238;2023-03-01T13:26:31;6.37;;;3.40;;
6928;SDS011;3504;52.616;13.238;2023-03-01T13:32:07;5.33;;;3.17;;
6928;SDS011;3504;52.616;13.238;2023-03-01T13:37:34;5.20;;;3.30;;
6928;SDS011;3504;52.616;13.238;2023-03-01T13:42:38;5.20;;;3.33;;
6928;SDS011;3504;52.616;13.238;2023-03-01T13:47:43;4.23;;;3.03;;
6928;SDS011;3504;52.616;13.238;2023-03-01T13:52:49;5.20;;;3.30;;
6928;SDS011;3504;52.616;13.238;2023-03-01T13:58:00;5.37;;;2.90;;
6928;SDS011;3504;52.616;13.238;2023-03-01T14:03:15;5.00;;;3.30;;
6928;SDS011;3504;52.616;13.238;2023-03-01T14:08:20;5.23;;;3.13;;
6928;SDS011;3504;52.616;13.238;2023-03-01T14:18:57;3.60;;;2.60;;
6928;SDS011;3504;52.616;13.238;2023-03-01T14:24:18;4.53;;;2.97;;
6928;SDS011;3504;52.616;13.238;2023-03-01T14:34:41;7.70;;;2.90;;
6928;SDS011;3504;52.616;13.238;2023-03-01T14:39:44;4.03;;;2.50;;
6928;SDS011;3504;52.616;13.238;2023-03-01T14:44:46;3.93;;;2.27;;
6928;SDS011;3504;52.616;13.238;2023-03-01T14:49:50;3.53;;;2.73;;
6928;SDS011;3504;52.616;13.238;2023-03-01T14:55:02;3.93;;;2.30;;
6928;SDS011;3504;52.616;13.238;2023-03-01T15:00:18;4.03;;;2.57;;
6928;SDS011;3504;52.616;13.238;2023-03-01T15:05:27;2.73;;;2.00;;
6928;SDS011;3504;52.616;13.238;2023-03-01T15:10:32;4.20;;;2.47;;
6928;SDS011;3504;52.616;13.238;2023-03-01T15:15:36;5.03;;;3.17;;
6928;SDS011;3504;52.616;13.238;2023-03-01T15:20:41;4.30;;;2.67;;
6928;SDS011;3504;52.616;13.238;2023-03-01T15:25:43;4.83;;;2.30;;
6928;SDS011;3504;52.616;13.238;2023-03-01T15:30:44;3.77;;;2.97;;
6928;SDS011;3504;52.616;13.238;2023-03-01T15:35:49;4.53;;;2.30;;
6928;SDS011;3504;52.616;13.238;2023-03-01T15:40:52;5.17;;;3.10;;
6928;SDS011;3504;52.616;13.238;2023-03-01T15:45:56;5.13;;;3.00;;
6928;SDS011;3504;52.616;13.238;2023-03-01T15:50:58;3.33;;;2.53;;
6928;SDS011;3504;52.616;13.238;2023-03-01T15:55:59;5.40;;;2.77;;
6928;SDS011;3504;52.616;13.238;2023-03-01T16:00:59;2.83;;;2.30;;
6928;SDS011;3504;52.616;13.238;2023-03-01T16:06:00;2.63;;;2.33;;
6928;SDS011;3504;52.616;13.238;2023-03-01T16:11:01;3.70;;;2.83;;
6928;SDS011;3504;52.616;13.238;2023-03-01T16:16:04;3.97;;;2.70;;
6928;SDS011;3504;52.616;13.238;2023-03-01T16:21:05;6.90;;;2.50;;
6928;SDS011;3504;52.616;13.238;2023-03-01T16:26:06;4.43;;;2.53;;
6928;SDS011;3504;52.616;13.238;2023-03-01T16:31:06;5.10;;;3.00;;
6928;SDS011;3504;52.616;13.238;2023-03-01T16:36:10;4.07;;;2.57;;
6928;SDS011;3504;52.616;13.238;2023-03-01T16:41:13;5.83;;;3.07;;
6928;SDS011;3504;52.616;13.238;2023-03-01T16:46:16;6.70;;;4.20;;
6928;SDS011;3504;52.616;13.238;2023-03-01T16:51:20;4.67;;;3.13;;
6928;SDS011;3504;52.616;13.238;2023-03-01T16:56:21;6.00;;;3.50;;
6928;SDS011;3504;52.616;13.238;2023-03-01T17:01:22;6.30;;;3.47;;
6928;SDS011;3504;52.616;13.238;2023-03-01T17:06:25;7.43;;;4.23;;
6928;SDS011;3504;52.616;13.238;2023-03-01T17:11:26;17.90;;;8.73;;
6928;SDS011;3504;52.616;13.238;2023-03-01T17:16:27;17.50;;;8.67;;
6928;SDS011;3504;52.616;13.238;2023-03-01T17:21:28;18.27;;;8.17;;
6928;SDS011;3504;52.616;13.238;2023-03-01T17:26:28;14.70;;;6.47;;
6928;SDS011;3504;52.616;13.238;2023-03-01T17:31:30;9.97;;;5.83;;
6928;SDS011;3504;52.616;13.238;2023-03-01T17:36:32;10.03;;;5.67;;
6928;SDS011;3504;52.616;13.238;2023-03-01T17:41:40;10.47;;;5.00;;
6928;SDS011;3504;52.616;13.238;2023-03-01T17:46:41;13.37;;;9.07;;
6928;SDS011;3504;52.616;13.238;2023-03-01T17:51:41;14.30;;;8.57;;
6928;SDS011;3504;52.616;13.238;2023-03-01T17:56:43;13.90;;;7.43;;
6928;SDS011;3504;52.616;13.238;2023-03-01T18:01:43;11.73;;;7.43;;
6928;SDS011;3504;52.616;13.238;2023-03-01T18:06:44;12.93;;;7.43;;
6928;SDS011;3504;52.616;13.238;2023-03-01T18:11:45;14.03;;;7.87;;
6928;SDS011;3504;52.616;13.238;2023-03-01T18:16:45;10.70;;;7.57;;
6928;SDS011;3504;52.616;13.238;2023-03-01T18:21:45;12.63;;;7.57;;
6928;SDS011;3504;52.616;13.238;2023-03-01T18:26:46;10.10;;;6.53;;
6928;SDS011;3504;52.616;13.238;2023-03-01T18:31:46;13.10;;;6.90;;
6928;SDS011;3504;52.616;13.238;2023-03-01T18:36:47;7.07;;;5.03;;
6928;SDS011;3504;52.616;13.238;2023-03-01T18:41:50;10.30;;;6.07;;
6928;SDS011;3504;52.616;13.238;2023-03-01T18:46:51;12.70;;;6.10;;
6928;SDS011;3504;52.616;13.238;2023-03-01T18:51:51;11.10;;;8.10;;
6928;SDS011;3504;52.616;13.238;2023-03-01T18:56:52;12.13;;;5.90;;
6928;SDS011;3504;52.616;13.238;2023-03-01T19:01:53;8.87;;;5.67;;
6928;SDS011;3504;52.616;13.238;2023-03-01T19:06:53;11.60;;;6.20;;
6928;SDS011;3504;52.616;13.238;2023-03-01T19:11:54;10.87;;;6.23;;
6928;SDS011;3504;52.616;13.238;2023-03-01T19:16:57;11.13;;;7.40;;
6928;SDS011;3504;52.616;13.238;2023-03-01T19:21:58;11.73;;;7.87;;
6928;SDS011;3504;52.616;13.238;2023-03-01T19:26:58;14.87;;;9.40;;
6928;SDS011;3504;52.616;13.238;2023-03-01T19:31:59;13.87;;;9.00;;
6928;SDS011;3504;52.616;13.238;2023-03-01T19:36:59;15.40;;;9.20;;
6928;SDS011;3504;52.616;13.238;2023-03-01T19:42:00;14.13;;;10.77;;
6928;SDS011;3504;52.616;13.238;2023-03-01T19:47:00;16.20;;;11.27;;
6928;SDS011;3504;52.616;13.238;2023-03-01T19:52:01;14.80;;;10.83;;
6928;SDS011;3504;52.616;13.238;2023-03-01T19:57:02;17.60;;;11.67;;
6928;SDS011;3504;52.616;13.238;2023-03-01T20:02:03;21.13;;;13.73;;
6928;SDS011;3504;52.616;13.238;2023-03-01T20:07:04;175.50;;;56.70;;
6928;SDS011;3504;52.616;13.238;2023-03-01T20:12:04;78.20;;;32.70;;
6928;SDS011;3504;52.616;13.238;2023-03-01T20:17:05;63.13;;;28.23;;
6928;SDS011;3504;52.616;13.238;2023-03-01T20:22:05;33.37;;;17.57;;
6928;SDS011;3504;52.616;13.238;2023-03-01T20:27:06;24.63;;;15.57;;
6928;SDS011;3504;52.616;13.238;2023-03-01T20:32:06;24.03;;;14.13;;
6928;SDS011;3504;52.616;13.238;2023-03-01T20:37:08;26.00;;;15.47;;
6928;SDS011;3504;52.616;13.238;2023-03-01T20:42:09;67.00;;;30.77;;
6928;SDS011;3504;52.616;13.238;2023-03-01T20:47:10;40.27;;;20.20;;
6928;SDS011;3504;52.616;13.238;2023-03-01T20:52:10;18.17;;;13.80;;
6928;SDS011;3504;52.616;13.238;2023-03-01T20:57:11;18.20;;;13.97;;
6928;SDS011;3504;52.616;13.238;2023-03-01T21:02:11;31.60;;;20.07;;
6928;SDS011;3504;52.616;13.238;2023-03-01T21:07:12;61.57;;;32.47;;
6928;SDS011;3504;52.616;13.238;2023-03-01T21:12:13;83.80;;;45.23;;
6928;SDS011;3504;52.616;13.238;2023-03-01T21:17:14;38.43;;;22.60;;
6928;SDS011;3504;52.616;13.238;2023-03-01T21:22:16;52.27;;;31.03;;
6928;SDS011;3504;52.616;13.238;2023-03-01T21:27:16;67.97;;;36.33;;
6928;SDS011;3504;52.616;13.238;2023-03-01T21:32:17;61.10;;;33.23;;
6928;SDS011;3504;52.616;13.238;2023-03-01T21:37:18;55.63;;;31.90;;
6928;SDS011;3504;52.616;13.238;2023-03-01T21:42:21;50.53;;;28.90;;
6928;SDS011;3504;52.616;13.238;2023-03-01T21:47:22;52.90;;;28.60;;
6928;SDS011;3504;52.616;13.238;2023-03-01T21:52:22;47.93;;;28.10;;
6928;SDS011;3504;52.616;13.238;2023-03-01T21:57:22;63.00;;;32.17;;
6928;SDS011;3504;52.616;13.238;2023-03-01T22:02:23;55.33;;;30.40;;
6928;SDS011;3504;52.616;13.238;2023-03-01T22:07:24;45.20;;;25.73;;
6928;SDS011;3504;52.616;13.238;2023-03-01T22:12:24;38.97;;;23.60;;
6928;SDS011;3504;52.616;13.238;2023-03-01T22:17:25;34.87;;;20.70;;
6928;SDS011;3504;52.616;13.238;2023-03-01T22:22:25;32.50;;;18.23;;
6928;SDS011;3504;52.616;13.238;2023-03-01T22:27:26;27.07;;;17.47;;
6928;SDS011;3504;52.616;13.238;2023-03-01T22:32:26;26.83;;;17.87;;
6928;SDS011;3504;52.616;13.238;2023-03-01T22:37:27;21.03;;;15.73;;
6928;SDS011;3504;52.616;13.238;2023-03-01T22:42:27;25.00;;;15.77;;
6928;SDS011;3504;52.616;13.238;2023-03-01T22:47:28;19.50;;;13.63;;
6928;SDS011;3504;52.616;13.238;2023-03-01T22:52:28;21.97;;;14.33;;
6928;SDS011;3504;52.616;13.238;2023-03-01T22:57:29;22.17;;;14.07;;
6928;SDS011;3504;52.616;13.238;2023-03-01T23:02:30;20.03;;;13.30;;
6928;SDS011;3504;52.616;13.238;2023-03-01T23:07:33;18.37;;;13.03;;
6928;SDS011;3504;52.616;13.238;2023-03-01T23:12:36;19.67;;;12.90;;
6928;SDS011;3504;52.616;13.238;2023-03-01T23:17:37;23.70;;;16.30;;
6928;SDS011;3504;52.616;13.238;2023-03-01T23:22:37;23.70;;;14.63;;
6928;SDS011;3504;52.616;13.238;2023-03-01T23:27:38;21.60;;;13.90;;
6928;SDS011;3504;52.616;13.238;2023-03-01T23:32:38;21.30;;;14.90;;
6928;SDS011;3504;52.616;13.238;2023-03-01T23:37:39;18.60;;;13.40;;
6928;SDS011;3504;52.616;13.238;2023-03-01T23:42:39;21.27;;;13.77;;
6928;SDS011;3504;52.616;13.238;2023-03-01T23:47:40;22.03;;;15.60;;
6928;SDS011;3504;52.616;13.238;2023-03-01T23:52:42;22.80;;;13.90;;
6928;SDS011;3504;52.616;13.238;2023-03-01T23:57:43;18.90;;;13.70;;
